Time;durP1;ratioP1;P1;durP2;ratioP2;P2;SDS_P1;SDS_P2;PMS_P1;PMS_P2;Temp;Humidity;BMP_temperature;BMP_pressure;BME280_temperature;BME280_humidity;BME280_pressure;Samples;Min_cycle;Max_cycle;Signal;HPM_P1;HPM_P2
2023/01/16 00:00:00;;;;;;;9.20;3.10;;;4.30;99.90;;;;;;5054775;28;20120;-80
2023/01/16 00:02:27;;;;;;;15.07;4.20;;;4.30;99.90;;;;;;5054390;28;20065;-79
2023/01/16 00:04:53;;;;;;;13.90;4.15;;;4.30;99.90;;;;;;5038112;28;20037;-77
2023/01/16 00:07:20;;;;;;;7.68;2.83;;;4.30;99.90;;;;;;5055534;28;20412;-76
2023/01/16 00:09:47;;;;;;;14.43;5.15;;;4.30;99.90;;;;;;5036792;28;20132;-79
2023/01/16 00:12:14;;;;;;;11.23;4.60;;;4.30;99.90;;;;;;5054228;28;20043;-81
2023/01/16 00:14:41;;;;;;;12.82;3.95;;;4.30;99.90;;;;;;5055506;28;20045;-82
2023/01/16 00:17:08;;;;;;;11.45;3.38;;;4.30;99.90;;;;;;5053830;28;20044;-82
2023/01/16 00:19:34;;;;;;;10.63;3.67;;;4.30;99.90;;;;;;5054651;28;20467;-82
2023/01/16 00:22:01;;;;;;;10.65;4.18;;;4.30;99.90;;;;;;5053053;28;20437;-79
2023/01/16 00:24:28;;;;;;;11.15;3.88;;;4.30;99.90;;;;;;5055182;28;20049;-79
2023/01/16 00:26:54;;;;;;;10.43;3.40;;;4.30;99.90;;;;;;5040364;28;20052;-79
2023/01/16 00:29:21;;;;;;;8.57;3.90;;;4.30;99.90;;;;;;5000590;28;20041;-81
2023/01/16 00:31:48;;;;;;;11.88;4.50;;;4.30;99.90;;;;;;5017144;28;20103;-80
2023/01/16 00:34:15;;;;;;;9.07;3.78;;;4.30;99.90;;;;;;5035287;28;20349;-79
2023/01/16 00:36:42;;;;;;;14.27;3.90;;;4.30;99.90;;;;;;5034086;28;20052;-79
2023/01/16 00:39:09;;;;;;;17.08;4.35;;;4.30;99.90;;;;;;5035065;28;20064;-78
2023/01/16 00:41:35;;;;;;;9.00;2.78;;;4.40;99.90;;;;;;5034690;28;20041;-78
2023/01/16 00:44:02;;;;;;;9.60;3.78;;;4.40;99.90;;;;;;5016508;28;20366;-82
2023/01/16 00:46:29;;;;;;;12.48;4.63;;;4.40;99.90;;;;;;5017923;28;20338;-81
2023/01/16 00:48:56;;;;;;;9.75;3.45;;;4.40;99.90;;;;;;5016353;28;20049;-81
2023/01/16 00:51:23;;;;;;;12.80;4.72;;;4.40;99.90;;;;;;5017855;28;20149;-79
2023/01/16 00:53:49;;;;;;;14.05;3.25;;;4.40;99.90;;;;;;5034853;28;20041;-82
2023/01/16 00:56:16;;;;;;;9.80;3.90;;;4.40;99.90;;;;;;5033882;28;20042;-79
2023/01/16 00:58:43;;;;;;;11.70;3.22;;;4.50;99.90;;;;;;5017251;28;20047;-79
2023/01/16 01:01:09;;;;;;;8.90;3.53;;;4.50;99.90;;;;;;5034149;28;20041;-79
2023/01/16 01:03:41;;;;;;;10.57;3.67;;;4.50;99.90;;;;;;5016562;28;20045;-81
2023/01/16 01:06:07;;;;;;;12.57;3.28;;;4.50;99.90;;;;;;5017423;28;20045;-81
2023/01/16 01:08:34;;;;;;;13.57;4.53;;;4.50;99.90;;;;;;5033683;28;20041;-81
2023/01/16 01:11:01;;;;;;;16.10;3.65;;;4.50;99.90;;;;;;5034288;28;20060;-80
2023/01/16 01:13:28;;;;;;;10.93;3.38;;;4.50;99.90;;;;;;5034578;28;20065;-81
2023/01/16 01:15:54;;;;;;;12.65;4.25;;;4.50;99.90;;;;;;5016673;28;20050;-79
2023/01/16 01:18:21;;;;;;;12.05;3.03;;;4.40;99.90;;;;;;5017049;28;20447;-78
2023/01/16 01:20:48;;;;;;;11.98;3.90;;;4.40;99.90;;;;;;5034090;28;20045;-78
2023/01/16 01:23:15;;;;;;;12.18;3.85;;;4.40;99.90;;;;;;5016195;28;20468;-81
2023/01/16 01:25:41;;;;;;;12.88;3.65;;;4.50;99.90;;;;;;5038385;28;20033;-80
2023/01/16 01:28:08;;;;;;;19.20;4.00;;;4.40;99.90;;;;;;5035428;28;20391;-77
2023/01/16 01:30:35;;;;;;;11.07;3.83;;;4.50;99.90;;;;;;5052786;28;20041;-78
2023/01/16 01:33:01;;;;;;;15.82;4.70;;;4.50;99.90;;;;;;5054174;28;20048;-81
2023/01/16 01:35:28;;;;;;;12.77;3.92;;;4.40;99.90;;;;;;5053228;28;20040;-79
2023/01/16 01:37:55;;;;;;;9.65;3.75;;;4.40;99.90;;;;;;5054273;28;20064;-78
2023/01/16 01:40:21;;;;;;;13.02;3.85;;;4.40;99.90;;;;;;5054391;28;20100;-80
2023/01/16 01:42:51;;;;;;;9.68;3.53;;;4.40;99.90;;;;;;5035744;28;20557;-78
2023/01/16 01:45:18;;;;;;;12.23;3.85;;;4.40;99.90;;;;;;5054390;28;20410;-80
2023/01/16 01:47:45;;;;;;;12.05;4.65;;;4.40;99.90;;;;;;5054072;28;20086;-80
2023/01/16 01:50:11;;;;;;;11.85;3.80;;;4.40;99.90;;;;;;5052973;28;20068;-78
2023/01/16 01:52:38;;;;;;;9.68;3.28;;;4.40;99.90;;;;;;5053735;28;20456;-78
2023/01/16 01:55:05;;;;;;;11.55;3.72;;;4.40;99.90;;;;;;5053068;28;20552;-79
2023/01/16 01:57:31;;;;;;;8.82;3.10;;;4.40;99.90;;;;;;5036285;28;20052;-79
2023/01/16 01:59:58;;;;;;;10.10;4.18;;;4.30;99.90;;;;;;5036493;28;20051;-78
2023/01/16 02:02:26;;;;;;;8.45;3.50;;;4.30;99.90;;;;;;5052793;28;20114;-81
2023/01/16 02:04:56;;;;;;;6.40;2.83;;;4.30;99.90;;;;;;5053984;28;20037;-81
2023/01/16 02:07:23;;;;;;;9.80;3.53;;;4.30;99.90;;;;;;5054422;28;20075;-78
2023/01/16 02:09:49;;;;;;;12.40;3.45;;;4.30;99.90;;;;;;5052829;28;20048;-79
2023/01/16 02:12:17;;;;;;;8.82;3.03;;;4.40;99.90;;;;;;5036392;28;20049;-79
2023/01/16 02:14:43;;;;;;;11.27;3.03;;;4.40;99.90;;;;;;5057408;28;20041;-81
2023/01/16 02:19:55;;;;;;;7.85;3.03;;;4.40;99.90;;;;;;5043372;28;20120;-80
2023/01/16 02:22:22;;;;;;;9.65;2.90;;;4.40;99.90;;;;;;5056291;28;20041;-80
2023/01/16 02:24:49;;;;;;;9.25;2.67;;;4.40;99.90;;;;;;5026306;28;20053;-79
2023/01/16 02:27:15;;;;;;;8.90;3.58;;;4.40;99.90;;;;;;5019469;28;20365;-78
2023/01/16 02:29:42;;;;;;;10.18;3.35;;;4.40;99.90;;;;;;5036348;28;20033;-78
2023/01/16 02:32:08;;;;;;;6.53;2.95;;;4.50;99.90;;;;;;5037041;28;20056;-79
2023/01/16 02:34:35;;;;;;;5.60;2.22;;;4.50;99.90;;;;;;5037145;28;20051;-78
2023/01/16 02:37:02;;;;;;;4.30;1.85;;;4.50;99.90;;;;;;5035760;28;20038;-78
2023/01/16 02:39:28;;;;;;;3.17;0.90;;;4.40;99.90;;;;;;5036956;28;20360;-78
2023/01/16 02:41:55;;;;;;;2.78;1.00;;;4.40;99.90;;;;;;5036040;28;20045;-79
2023/01/16 02:44:22;;;;;;;1.83;0.80;;;4.40;99.90;;;;;;5019470;28;20392;-78
2023/01/16 02:47:03;;;;;;;3.92;1.25;;;4.30;99.90;;;;;;5022114;28;20099;-80
2023/01/16 02:49:30;;;;;;;3.92;1.50;;;4.30;99.90;;;;;;5018510;28;20049;-81
2023/01/16 02:51:56;;;;;;;3.92;1.05;;;4.30;99.90;;;;;;5037057;28;20124;-78
2023/01/16 02:54:24;;;;;;;2.40;1.10;;;4.20;99.90;;;;;;5019217;28;20045;-78
2023/01/16 02:56:51;;;;;;;1.45;0.88;;;4.20;99.90;;;;;;5036239;28;20128;-79
2023/01/16 02:59:18;;;;;;;1.42;0.77;;;4.10;99.90;;;;;;5019494;28;20515;-79
2023/01/16 03:01:44;;;;;;;1.67;1.10;;;4.10;99.90;;;;;;5035715;28;20037;-79
2023/01/16 03:04:11;;;;;;;1.80;0.80;;;4.00;99.90;;;;;;5036979;28;20529;-78
2023/01/16 03:06:38;;;;;;;1.38;0.70;;;3.90;99.90;;;;;;5019612;28;20051;-78
2023/01/16 03:09:04;;;;;;;1.95;0.57;;;3.80;99.90;;;;;;5035746;28;20037;-79
2023/01/16 03:11:31;;;;;;;1.90;0.63;;;3.80;99.90;;;;;;5036756;28;20037;-78
2023/01/16 03:13:59;;;;;;;0.70;0.60;;;3.70;99.90;;;;;;5053551;28;20516;-78
2023/01/16 03:16:25;;;;;;;0.63;0.50;;;3.70;99.90;;;;;;5055327;28;20040;-79
2023/01/16 03:18:52;;;;;;;1.00;0.50;;;3.60;99.90;;;;;;5038366;28;20045;-79
2023/01/16 03:21:19;;;;;;;2.22;0.50;;;3.50;99.90;;;;;;5056279;28;20037;-78
2023/01/16 03:23:45;;;;;;;0.98;0.50;;;3.50;99.90;;;;;;5037692;28;20391;-79
2023/01/16 03:26:12;;;;;;;0.57;0.40;;;3.40;99.90;;;;;;5056596;28;20076;-78
2023/01/16 03:28:39;;;;;;;1.20;0.40;;;3.30;99.90;;;;;;5037480;28;20430;-79
2023/01/16 03:31:06;;;;;;;0.52;0.52;;;3.30;99.90;;;;;;5038577;28;20063;-80
2023/01/16 03:33:33;;;;;;;0.60;0.45;;;3.20;99.90;;;;;;5055933;28;20098;-78
2023/01/16 03:36:00;;;;;;;0.82;0.50;;;3.20;99.90;;;;;;5037574;28;20372;-80
2023/01/16 03:38:26;;;;;;;0.90;0.35;;;3.20;99.90;;;;;;5056097;28;20090;-80
2023/01/16 03:40:53;;;;;;;1.20;0.60;;;3.20;99.90;;;;;;5038722;28;20040;-80
2023/01/16 03:43:20;;;;;;;0.85;0.50;;;3.20;99.90;;;;;;5021036;28;20041;-79
2023/01/16 03:45:46;;;;;;;1.05;0.45;;;3.10;99.90;;;;;;5056391;28;20051;-79
2023/01/16 03:48:13;;;;;;;1.25;0.52;;;3.20;99.90;;;;;;5055387;28;20040;-80
2023/01/16 03:50:40;;;;;;;1.35;0.77;;;3.10;99.90;;;;;;5054735;28;20124;-78
2023/01/16 03:53:07;;;;;;;0.40;0.40;;;3.00;99.90;;;;;;5037839;28;20037;-78
2023/01/16 03:55:33;;;;;;;0.45;0.40;;;2.90;99.90;;;;;;5037110;28;20431;-79
2023/01/16 03:58:00;;;;;;;0.65;0.40;;;2.80;99.90;;;;;;5037759;28;20041;-78
2023/01/16 04:00:27;;;;;;;0.82;0.82;;;2.80;99.90;;;;;;5037991;28;20857;-80
2023/01/16 04:02:53;;;;;;;0.50;0.50;;;2.70;99.90;;;;;;5054529;28;20033;-78
2023/01/16 04:05:20;;;;;;;0.52;0.50;;;2.60;99.90;;;;;;5037956;28;20044;-79
2023/01/16 04:07:47;;;;;;;0.45;0.45;;;2.60;99.90;;;;;;5037670;28;20064;-79
2023/01/16 04:10:13;;;;;;;2.00;0.50;;;2.50;99.90;;;;;;5037006;28;20061;-79
2023/01/16 04:12:40;;;;;;;0.77;0.50;;;2.50;99.90;;;;;;5048278;28;20395;-79
2023/01/16 04:15:07;;;;;;;0.40;0.40;;;2.40;99.90;;;;;;5034615;28;20042;-78
2023/01/16 04:17:33;;;;;;;0.70;0.45;;;2.40;99.90;;;;;;5017524;28;20045;-78
2023/01/16 04:20:00;;;;;;;0.52;0.40;;;2.40;99.90;;;;;;5035122;28;20037;-79
2023/01/16 04:22:27;;;;;;;0.88;0.50;;;2.30;99.90;;;;;;5017080;28;20345;-79
2023/01/16 04:24:53;;;;;;;0.43;0.43;;;2.30;99.90;;;;;;5034947;28;20047;-78
2023/01/16 04:27:20;;;;;;;1.10;0.60;;;2.20;99.90;;;;;;5017695;28;20076;-78
2023/01/16 04:29:46;;;;;;;1.48;0.60;;;2.20;99.90;;;;;;5034108;28;20045;-79
2023/01/16 04:32:14;;;;;;;0.40;0.40;;;2.10;99.90;;;;;;5034930;28;20530;-79
2023/01/16 04:34:41;;;;;;;0.85;0.40;;;2.10;99.90;;;;;;5034920;28;20367;-79
2023/01/16 04:37:08;;;;;;;0.63;0.63;;;2.10;99.90;;;;;;5033921;28;20464;-78
2023/01/16 04:39:35;;;;;;;0.68;0.68;;;2.10;99.90;;;;;;5017649;28;20045;-78
2023/01/16 04:42:02;;;;;;;0.65;0.30;;;2.10;99.90;;;;;;5034047;28;20456;-78
2023/01/16 04:44:28;;;;;;;0.40;0.40;;;2.00;99.90;;;;;;5034829;28;20041;-78
2023/01/16 04:46:58;;;;;;;0.85;0.60;;;2.00;99.90;;;;;;5017389;28;20133;-80
2023/01/16 04:49:24;;;;;;;0.50;0.50;;;2.00;99.90;;;;;;5016327;28;20053;-79
2023/01/16 04:51:51;;;;;;;0.50;0.50;;;1.90;99.90;;;;;;5035243;28;20049;-80
2023/01/16 04:54:18;;;;;;;0.88;0.65;;;1.90;99.90;;;;;;5017804;28;20034;-79
2023/01/16 04:56:45;;;;;;;2.92;1.25;;;1.90;99.90;;;;;;5016617;28;20059;-79
2023/01/16 04:59:12;;;;;;;1.95;0.60;;;1.90;99.90;;;;;;5034875;28;20360;-80
2023/01/16 05:01:39;;;;;;;0.73;0.73;;;1.90;99.90;;;;;;5034686;28;20037;-78
2023/01/16 05:04:06;;;;;;;1.15;0.70;;;1.90;99.90;;;;;;5034453;28;20042;-79
2023/01/16 05:06:32;;;;;;;0.77;0.77;;;1.90;99.90;;;;;;5035094;28;20042;-80
2023/01/16 05:08:59;;;;;;;2.97;0.80;;;1.90;99.90;;;;;;5034094;28;20037;-79
2023/01/16 05:11:26;;;;;;;0.98;0.90;;;1.90;99.90;;;;;;5017107;28;20144;-78
2023/01/16 05:13:54;;;;;;;0.80;0.80;;;1.90;99.90;;;;;;5051067;28;20044;-80
2023/01/16 05:16:20;;;;;;;2.33;1.10;;;1.90;99.90;;;;;;5054044;28;20042;-79
2023/01/16 05:18:47;;;;;;;2.05;0.82;;;1.80;99.90;;;;;;5054213;28;20041;-79
2023/01/16 05:21:13;;;;;;;1.02;0.80;;;1.80;99.90;;;;;;5054586;28;20052;-80
2023/01/16 05:23:41;;;;;;;0.57;0.57;;;1.80;99.90;;;;;;5053488;28;20044;-80
2023/01/16 05:26:08;;;;;;;0.73;0.63;;;1.70;99.90;;;;;;5054574;28;20055;-80
2023/01/16 05:28:34;;;;;;;0.68;0.60;;;1.60;99.90;;;;;;5053180;28;20045;-80
2023/01/16 05:31:01;;;;;;;0.52;0.52;;;1.60;99.90;;;;;;5054533;28;20459;-80
2023/01/16 05:33:28;;;;;;;0.50;0.50;;;1.60;99.90;;;;;;5036698;28;20040;-80
2023/01/16 05:35:55;;;;;;;1.13;0.70;;;1.50;99.90;;;;;;5053366;28;20045;-79
2023/01/16 05:38:22;;;;;;;0.50;0.50;;;1.60;99.90;;;;;;5036558;28;20068;-79
2023/01/16 05:40:48;;;;;;;1.15;0.77;;;1.50;99.90;;;;;;5036977;28;20132;-79
2023/01/16 05:43:15;;;;;;;0.80;0.80;;;1.50;99.90;;;;;;5019431;28;20052;-81
2023/01/16 05:45:42;;;;;;;1.40;1.00;;;1.50;99.90;;;;;;5036915;28;20063;-79
2023/01/16 05:48:09;;;;;;;0.82;0.80;;;1.50;99.90;;;;;;5037990;28;20459;-80
2023/01/16 05:50:35;;;;;;;2.13;0.90;;;1.50;99.90;;;;;;5039830;28;20455;-80
2023/01/16 05:53:03;;;;;;;0.60;0.60;;;1.50;99.90;;;;;;5040238;28;20044;-79
2023/01/16 05:55:30;;;;;;;0.73;0.73;;;1.50;99.90;;;;;;5039832;28;20049;-81
2023/01/16 05:57:56;;;;;;;0.77;0.70;;;1.50;99.90;;;;;;5057567;28;20340;-81
2023/01/16 06:00:23;;;;;;;0.75;0.73;;;1.60;99.90;;;;;;5057650;28;20040;-80
2023/01/16 06:02:50;;;;;;;0.82;0.70;;;1.60;99.90;;;;;;5056726;28;20475;-78
2023/01/16 06:05:17;;;;;;;1.15;0.80;;;1.70;99.90;;;;;;5057806;28;20079;-79
2023/01/16 06:07:43;;;;;;;3.38;1.48;;;1.80;99.90;;;;;;5040053;28;20051;-80
2023/01/16 06:10:10;;;;;;;2.92;1.23;;;1.90;99.90;;;;;;5056637;28;20044;-80
2023/01/16 06:12:36;;;;;;;1.27;0.77;;;2.00;99.90;;;;;;5057422;28;20080;-80
2023/01/16 06:15:03;;;;;;;1.42;0.70;;;2.10;99.90;;;;;;5057140;28;20432;-81
2023/01/16 06:17:30;;;;;;;1.25;0.60;;;2.20;99.90;;;;;;5039906;28;20041;-80
2023/01/16 06:19:57;;;;;;;0.55;0.55;;;2.30;99.90;;;;;;5039846;28;20379;-81
2023/01/16 06:22:26;;;;;;;0.80;0.70;;;2.40;99.90;;;;;;5038817;28;20037;-79
2023/01/16 06:24:52;;;;;;;0.65;0.60;;;2.40;99.90;;;;;;5040363;28;20041;-79
2023/01/16 06:27:19;;;;;;;0.40;0.40;;;2.40;99.90;;;;;;5057241;28;20037;-78
2023/01/16 06:29:46;;;;;;;0.50;0.50;;;2.40;99.90;;;;;;5056258;28;20120;-78
2023/01/16 06:32:13;;;;;;;0.57;0.50;;;2.40;99.90;;;;;;5040102;28;20037;-78
2023/01/16 06:34:39;;;;;;;2.42;1.10;;;2.40;99.90;;;;;;5039424;28;20077;-78
2023/01/16 06:37:06;;;;;;;0.50;0.50;;;2.40;99.90;;;;;;5038600;28;20033;-79
2023/01/16 06:39:32;;;;;;;0.50;0.50;;;2.40;99.90;;;;;;5039511;28;20052;-79
2023/01/16 06:41:59;;;;;;;0.55;0.55;;;2.40;99.90;;;;;;5056125;28;20045;-78
2023/01/16 06:44:26;;;;;;;0.50;0.50;;;2.40;99.90;;;;;;5056801;28;20574;-79
2023/01/16 06:46:52;;;;;;;0.85;0.60;;;2.50;99.90;;;;;;5056693;28;20036;-79
2023/01/16 06:49:19;;;;;;;0.73;0.70;;;2.50;99.90;;;;;;5055734;28;20063;-79
2023/01/16 06:51:46;;;;;;;0.98;0.60;;;2.50;99.90;;;;;;5056664;28;20048;-78
2023/01/16 06:54:13;;;;;;;1.20;0.90;;;2.50;99.90;;;;;;5039088;28;20048;-78
2023/01/16 06:56:39;;;;;;;0.77;0.70;;;2.50;99.90;;;;;;5038871;28;20040;-79
2023/01/16 06:59:06;;;;;;;0.88;0.80;;;2.60;99.90;;;;;;5038381;28;20051;-79
2023/01/16 07:01:33;;;;;;;2.25;1.27;;;2.60;99.90;;;;;;5044861;28;20527;-79
2023/01/16 07:04:00;;;;;;;1.05;0.95;;;2.60;99.90;;;;;;5018210;28;20038;-79
2023/01/16 07:06:26;;;;;;;3.22;1.40;;;2.70;99.90;;;;;;5036940;28;20042;-79
2023/01/16 07:08:53;;;;;;;14.10;2.80;;;2.70;99.90;;;;;;5034354;28;20045;-79
2023/01/16 07:11:20;;;;;;;8.32;1.92;;;2.80;99.90;;;;;;5036243;28;20041;-77
2023/01/16 07:13:46;;;;;;;2.72;2.22;;;2.80;99.90;;;;;;5038644;28;20052;-78
2023/01/16 07:24:29;;;;;;;2.30;1.58;;;3.00;99.90;;;;;;5038453;28;20053;-77
2023/01/16 07:26:57;;;;;;;2.03;1.58;;;3.10;99.90;;;;;;5018734;28;20053;-77
2023/01/16 07:29:24;;;;;;;4.55;1.15;;;3.10;99.90;;;;;;5001503;28;20380;-77
2023/01/16 07:31:51;;;;;;;2.58;1.00;;;3.10;99.90;;;;;;5063314;28;20048;-77
2023/01/16 07:34:19;;;;;;;3.95;1.67;;;3.20;99.90;;;;;;5074780;28;20036;-78
2023/01/16 07:36:45;;;;;;;1.25;0.98;;;3.20;99.90;;;;;;5055134;28;20041;-77
2023/01/16 07:39:12;;;;;;;5.45;1.15;;;3.20;99.90;;;;;;5055982;28;20041;-77
2023/01/16 07:41:39;;;;;;;2.53;1.10;;;3.20;99.90;;;;;;5056103;28;20474;-78
2023/01/16 07:44:23;;;;;;;2.30;1.27;;;3.20;99.90;;;;;;5055800;28;20493;-77
2023/01/16 07:46:49;;;;;;;6.03;2.28;;;3.30;99.90;;;;;;5055808;28;20057;-77
2023/01/16 07:49:16;;;;;;;2.72;1.75;;;3.30;99.90;;;;;;5037228;28;20059;-77
2023/01/16 07:51:43;;;;;;;3.70;2.45;;;3.40;99.90;;;;;;5024532;28;20076;-78
2023/01/16 07:54:11;;;;;;;6.65;3.33;;;3.40;99.90;;;;;;5018285;28;20460;-77
2023/01/16 07:56:37;;;;;;;9.48;3.40;;;3.40;99.90;;;;;;5017130;28;20060;-77
2023/01/16 07:59:04;;;;;;;9.32;3.95;;;3.50;99.90;;;;;;5036023;28;20073;-77
2023/01/16 08:01:31;;;;;;;7.97;4.13;;;3.50;99.90;;;;;;5002387;28;20456;-77
2023/01/16 08:03:58;;;;;;;5.55;3.58;;;3.50;99.90;;;;;;5017874;28;20041;-78
2023/01/16 08:06:25;;;;;;;16.73;6.20;;;3.50;99.90;;;;;;5035545;28;20441;-77
2023/01/16 08:08:51;;;;;;;14.02;5.32;;;3.50;99.90;;;;;;5000590;28;20064;-77
2023/01/16 08:11:38;;;;;;;12.63;5.68;;;3.50;99.90;;;;;;5017171;28;20046;-77
2023/01/16 08:14:05;;;;;;;10.27;5.00;;;3.50;99.90;;;;;;5035109;28;20407;-78
2023/01/16 08:16:31;;;;;;;12.20;5.75;;;3.60;99.90;;;;;;5017437;28;20037;-78
2023/01/16 08:18:58;;;;;;;12.85;5.47;;;3.50;99.90;;;;;;5018064;28;20124;-78
2023/01/16 08:21:25;;;;;;;13.77;4.70;;;3.60;99.90;;;;;;5017730;28;20037;-78
2023/01/16 08:23:51;;;;;;;11.55;4.20;;;3.60;99.90;;;;;;5017019;28;20041;-77
2023/01/16 08:26:18;;;;;;;11.23;4.45;;;3.60;99.90;;;;;;5018389;28;20047;-78
2023/01/16 08:28:45;;;;;;;16.42;4.40;;;3.60;99.90;;;;;;5033450;28;20156;-78
2023/01/16 08:31:15;;;;;;;12.30;4.03;;;3.60;99.90;;;;;;5034960;28;20037;-76
2023/01/16 08:33:42;;;;;;;12.70;4.80;;;3.60;99.90;;;;;;5035075;28;20139;-77
2023/01/16 08:36:09;;;;;;;14.15;5.00;;;3.70;99.90;;;;;;5033951;28;20071;-77
2023/01/16 08:38:35;;;;;;;19.73;4.75;;;3.60;99.90;;;;;;5034332;28;20041;-76
2023/01/16 08:41:02;;;;;;;16.65;5.22;;;3.70;99.90;;;;;;5035305;28;20042;-77
2023/01/16 08:51:45;;;;;;;14.95;4.05;;;3.70;99.90;;;;;;5028494;28;20144;-78
2023/01/16 08:54:13;;;;;;;16.98;4.47;;;3.70;99.90;;;;;;5033885;28;20554;-78
2023/01/16 08:56:42;;;;;;;14.48;3.95;;;3.70;99.90;;;;;;5015381;28;20048;-78
2023/01/16 08:59:09;;;;;;;10.90;4.95;;;3.70;99.90;;;;;;5017024;28;20116;-78
2023/01/16 09:01:36;;;;;;;10.30;5.68;;;3.70;99.90;;;;;;5034067;28;20037;-78
2023/01/16 09:04:03;;;;;;;15.68;5.45;;;3.80;99.90;;;;;;5015797;28;20041;-77
2023/01/16 09:06:30;;;;;;;15.70;5.22;;;3.70;99.90;;;;;;5033949;28;20551;-77
2023/01/16 09:08:56;;;;;;;16.67;5.53;;;3.80;99.90;;;;;;5032675;28;20049;-77
2023/01/16 09:14:08;;;;;;;17.08;5.55;;;3.80;99.90;;;;;;5034116;28;20045;-75
2023/01/16 09:16:51;;;;;;;12.70;5.40;;;3.80;99.90;;;;;;5032552;28;20056;-75
2023/01/16 09:19:18;;;;;;;9.88;6.07;;;3.70;99.90;;;;;;5034241;28;20115;-75
2023/01/16 09:21:44;;;;;;;10.82;6.35;;;3.70;99.90;;;;;;5016430;28;20055;-76
2023/01/16 09:24:11;;;;;;;14.75;6.70;;;3.70;99.90;;;;;;5035779;28;20033;-75
2023/01/16 09:26:38;;;;;;;18.10;7.15;;;3.70;99.90;;;;;;5020275;28;20060;-76
2023/01/16 09:29:05;;;;;;;15.68;6.43;;;3.70;99.90;;;;;;5037238;28;20427;-76
2023/01/16 09:31:31;;;;;;;17.20;6.93;;;3.70;99.90;;;;;;5003879;28;20053;-74
2023/01/16 09:33:58;;;;;;;17.13;7.45;;;3.70;99.90;;;;;;5037720;28;20038;-76
2023/01/16 09:36:25;;;;;;;14.60;7.20;;;3.70;99.90;;;;;;5037081;28;20059;-76
2023/01/16 09:38:52;;;;;;;18.73;8.82;;;3.70;99.90;;;;;;5004230;28;20116;-76
2023/01/16 09:44:04;;;;;;;13.60;5.97;;;3.70;99.90;;;;;;5019598;28;20061;-76
2023/01/16 09:46:30;;;;;;;14.52;7.25;;;3.70;99.90;;;;;;5037851;28;20526;-78
2023/01/16 09:48:57;;;;;;;14.13;6.70;;;3.70;99.90;;;;;;5019238;28;20064;-76
2023/01/16 09:51:24;;;;;;;10.70;5.80;;;3.70;99.90;;;;;;5037928;28;20038;-76
2023/01/16 09:59:23;;;;;;;12.68;6.45;;;3.90;99.90;;;;;;5031097;28;20068;-77
2023/01/16 10:01:50;;;;;;;9.35;5.57;;;3.80;99.90;;;;;;5036817;28;20482;-76
2023/01/16 10:04:17;;;;;;;7.97;5.57;;;3.80;99.90;;;;;;5040091;28;20073;-76
2023/01/16 10:06:44;;;;;;;9.63;5.47;;;3.80;99.90;;;;;;5043186;28;20037;-76
2023/01/16 10:09:11;;;;;;;12.20;6.00;;;3.90;99.90;;;;;;5045575;28;20047;-74
2023/01/16 10:11:37;;;;;;;10.27;5.40;;;3.90;99.90;;;;;;5047569;28;20057;-75
2023/01/16 10:14:04;;;;;;;10.75;6.03;;;4.00;99.90;;;;;;5030070;28;20049;-74
2023/01/16 10:16:31;;;;;;;12.02;5.95;;;3.90;99.90;;;;;;5034696;28;20055;-75
2023/01/16 10:18:57;;;;;;;12.30;5.47;;;3.90;99.90;;;;;;5037218;28;20045;-76
2023/01/16 10:21:24;;;;;;;10.05;4.75;;;3.90;99.90;;;;;;5019435;28;20056;-75
2023/01/16 10:23:51;;;;;;;10.07;5.95;;;3.90;99.90;;;;;;5030317;28;20440;-75
2023/01/16 10:26:18;;;;;;;10.63;5.88;;;4.00;99.90;;;;;;5013531;28;20060;-74
2023/01/16 10:28:45;;;;;;;11.57;7.32;;;4.00;99.90;;;;;;5038576;28;20392;-76
2023/01/16 10:31:11;;;;;;;12.57;6.35;;;4.00;99.90;;;;;;5076341;28;20048;-75
2023/01/16 10:33:38;;;;;;;12.35;6.47;;;4.10;99.90;;;;;;5075674;28;20040;-75
2023/01/16 10:36:18;;;;;;;9.80;6.20;;;4.20;99.90;;;;;;5035570;28;20049;-75
2023/01/16 10:38:45;;;;;;;12.57;7.25;;;4.30;99.90;;;;;;5018735;28;20045;-75
2023/01/16 10:49:25;;;;;;;11.05;5.93;;;4.30;99.90;;;;;;5075557;28;20115;-76
2023/01/16 10:49:30;;;;;;;10.18;6.60;;;4.30;99.90;;;;;;5044768;28;20059;-76
2023/01/16 10:51:57;;;;;;;12.05;6.38;;;4.30;99.90;;;;;;5076272;28;20045;-76
2023/01/16 10:54:24;;;;;;;11.60;6.30;;;4.30;99.90;;;;;;5054263;28;20059;-76
2023/01/16 10:56:50;;;;;;;11.15;6.45;;;4.30;99.90;;;;;;5055323;28;20041;-75
2023/01/16 10:59:20;;;;;;;9.82;6.32;;;4.30;99.90;;;;;;5052063;28;20123;-76
2023/01/16 11:01:50;;;;;;;12.80;7.07;;;4.20;99.90;;;;;;5020682;28;20053;-75
2023/01/16 11:04:18;;;;;;;11.38;6.90;;;4.30;99.90;;;;;;5051330;28;20049;-76
2023/01/16 11:06:45;;;;;;;11.88;7.68;;;4.40;99.90;;;;;;5024338;28;20042;-76
2023/01/16 11:09:14;;;;;;;9.10;6.03;;;4.30;99.90;;;;;;5037465;28;20042;-76
2023/01/16 11:19:57;;;;;;;8.02;5.60;;;4.30;99.90;;;;;;5038197;28;20064;-75
2023/01/16 11:22:25;;;;;;;12.82;7.53;;;4.30;99.90;;;;;;5055036;28;20056;-76
2023/01/16 11:24:51;;;;;;;9.00;6.50;;;4.30;99.90;;;;;;5037693;28;20048;-76
2023/01/16 11:27:18;;;;;;;7.95;6.03;;;4.30;99.90;;;;;;5055330;28;20132;-74
2023/01/16 11:29:45;;;;;;;15.30;7.75;;;4.30;99.90;;;;;;5052145;28;20040;-75
2023/01/16 11:32:11;;;;;;;10.45;7.53;;;4.40;99.90;;;;;;5046397;28;20047;-75
2023/01/16 11:34:38;;;;;;;14.15;7.63;;;4.40;99.90;;;;;;5049609;28;20159;-75
2023/01/16 11:37:04;;;;;;;10.20;6.93;;;4.40;99.90;;;;;;5047172;28;20410;-77
2023/01/16 11:39:31;;;;;;;13.65;9.38;;;4.40;99.90;;;;;;5029453;28;20049;-76
2023/01/16 11:41:58;;;;;;;14.57;7.72;;;4.50;99.90;;;;;;5048943;28;20034;-75
2023/01/16 11:47:10;;;;;;;14.55;9.50;;;4.60;99.90;;;;;;5037233;28;20416;-74
2023/01/16 11:49:36;;;;;;;13.65;8.23;;;4.60;99.90;;;;;;5019670;28;20053;-75
2023/01/16 11:52:03;;;;;;;12.18;7.78;;;4.60;99.90;;;;;;5014847;28;20049;-76
2023/01/16 11:54:30;;;;;;;11.95;8.15;;;4.60;99.90;;;;;;5015214;28;20464;-76
2023/01/16 11:56:57;;;;;;;12.50;8.60;;;4.60;99.90;;;;;;5005013;28;20042;-76
2023/01/16 11:59:23;;;;;;;12.23;8.45;;;4.70;99.90;;;;;;5012862;28;20048;-76
2023/01/16 12:04:35;;;;;;;14.02;8.00;;;4.80;99.90;;;;;;4995764;28;20136;-77
2023/01/16 12:07:02;;;;;;;13.40;7.65;;;4.90;99.90;;;;;;4995878;28;20453;-77
2023/01/16 12:09:29;;;;;;;13.98;8.77;;;4.90;99.90;;;;;;4995160;28;20039;-75
2023/01/16 12:11:55;;;;;;;10.30;7.30;;;5.00;99.90;;;;;;4996525;28;20042;-75
2023/01/16 12:14:22;;;;;;;15.48;8.02;;;4.90;99.90;;;;;;4995677;28;20350;-76
2023/01/16 12:16:49;;;;;;;14.63;8.50;;;4.90;99.90;;;;;;4993435;28;20038;-77
2023/01/16 12:19:15;;;;;;;14.57;7.85;;;4.90;99.90;;;;;;4995596;28;20113;-76
2023/01/16 12:21:42;;;;;;;19.55;9.02;;;4.90;99.90;;;;;;4993961;28;20461;-76
2023/01/16 12:24:10;;;;;;;11.48;7.55;;;4.90;99.90;;;;;;4958557;28;20116;-76
2023/01/16 12:26:37;;;;;;;16.10;8.90;;;4.90;99.90;;;;;;4998293;28;20046;-79
2023/01/16 12:29:03;;;;;;;11.40;8.50;;;4.80;99.90;;;;;;4993968;28;20465;-78
2023/01/16 12:31:38;;;;;;;14.02;8.63;;;4.90;99.90;;;;;;4994777;28;20350;-78
2023/01/16 12:34:04;;;;;;;12.93;8.05;;;4.90;99.90;;;;;;5003497;28;20385;-78
2023/01/16 12:36:31;;;;;;;13.80;8.55;;;4.90;99.90;;;;;;5010469;28;20034;-77
2023/01/16 12:38:58;;;;;;;11.63;7.10;;;5.00;99.90;;;;;;4998835;28;20084;-76
2023/01/16 12:44:11;;;;;;;9.85;7.05;;;5.10;99.90;;;;;;4994463;28;20114;-77
2023/01/16 12:46:37;;;;;;;15.15;9.07;;;5.10;99.90;;;;;;5015038;28;20042;-78
2023/01/16 12:49:04;;;;;;;10.23;7.63;;;5.10;99.90;;;;;;5032951;28;20471;-78
2023/01/16 12:51:31;;;;;;;13.23;8.00;;;5.20;99.90;;;;;;5036727;28;20052;-78
2023/01/16 12:54:00;;;;;;;14.88;8.82;;;5.10;99.90;;;;;;5065874;28;20054;-79
2023/01/16 12:56:26;;;;;;;14.03;7.87;;;5.20;99.90;;;;;;5058269;28;20045;-77
2023/01/16 12:58:53;;;;;;;10.82;8.02;;;5.30;99.90;;;;;;5054855;28;20289;-76
2023/01/16 13:01:19;;;;;;;16.65;8.68;;;5.40;99.90;;;;;;5036887;28;20437;-77
2023/01/16 13:03:46;;;;;;;14.10;7.95;;;5.50;99.90;;;;;;5053551;28;20047;-77
2023/01/16 13:06:13;;;;;;;11.20;6.75;;;5.50;99.90;;;;;;5054312;28;20092;-78
2023/01/16 13:08:40;;;;;;;10.57;7.22;;;5.50;99.90;;;;;;5035986;28;20365;-76
2023/01/16 13:13:52;;;;;;;12.45;7.10;;;5.60;99.90;;;;;;5037797;28;20383;-77
2023/01/16 13:16:18;;;;;;;12.27;6.90;;;5.70;99.90;;;;;;5015828;28;20057;-77
2023/01/16 13:18:45;;;;;;;12.35;5.95;;;5.70;99.90;;;;;;5017940;28;20050;-76
2023/01/16 13:21:12;;;;;;;14.00;4.90;;;5.70;99.90;;;;;;5016946;28;20044;-77
2023/01/16 13:23:39;;;;;;;11.75;5.00;;;5.60;99.90;;;;;;5016399;28;20120;-77
2023/01/16 13:26:06;;;;;;;10.52;4.95;;;5.50;99.90;;;;;;5017113;28;20116;-77
2023/01/16 13:28:33;;;;;;;10.32;5.38;;;5.50;99.90;;;;;;5016052;28;20136;-76
2023/01/16 13:30:59;;;;;;;29.02;6.45;;;5.50;99.90;;;;;;5017839;28;20395;-77
2023/01/16 13:33:26;;;;;;;8.60;4.45;;;5.60;99.90;;;;;;5034231;28;20045;-75
2023/01/16 13:35:53;;;;;;;8.50;5.13;;;5.60;99.90;;;;;;5016727;28;20037;-78
2023/01/16 13:38:19;;;;;;;13.02;5.60;;;5.70;99.90;;;;;;5000719;28;20052;-76
2023/01/16 13:40:47;;;;;;;11.13;5.40;;;5.70;99.90;;;;;;5000639;28;20494;-77
2023/01/16 13:46:01;;;;;;;7.53;4.78;;;5.70;99.90;;;;;;5034123;28;20460;-77
2023/01/16 13:48:28;;;;;;;11.32;5.15;;;5.70;99.90;;;;;;5033283;28;20058;-79